Meteorología y climatología de Navarra
Datos de la estación - Meteo Navarra

Estación de Pamplona GN

Altitud 455 m.


Datos desde el 16/09/2020 hasta el 17/09/2020 en horario solar
Los datos son PROVISIONALES

Anterior Página 1 de 1 Siguiente Descargar: Formato para Excel 2000 o superior   Formato csv   Formato para OpenOffice Calc
Fecha Temperatura Humedad relativa Radiación global Insolación Precipitación Vel. viento 10 m Vel. viento 10 m Dir. viento 10 m
ºC % W/m² s l/m² m/s km/h º
16/09/2020 0:00 19.8 71 0.0 0 0.0 1.1 3.9 72
16/09/2020 0:10 19.6 72 0.0 0 0.0 1.2 4.2 91
16/09/2020 0:20 19.6 70 0.0 0 0.0 1.1 3.9 84
16/09/2020 0:30 19.5 70 0.0 0 0.0 1.3 4.5 81
16/09/2020 0:40 19.4 71 0.0 0 0.0 1.2 4.1 70
16/09/2020 0:50 19.3 73 0.0 0 0.0 1.2 4.4 63
16/09/2020 1:00 19.2 72 0.0 0 0.0 1.2 4.2 88
16/09/2020 1:10 19.0 73 0.0 0 0.0 0.9 3.3 95
16/09/2020 1:20 18.9 73 0.0 0 0.0 1.1 4.0 112
16/09/2020 1:30 18.8 73 0.0 0 0.0 1.4 5.0 85
16/09/2020 1:40 18.5 74 0.0 0 0.0 0.9 3.2 94
16/09/2020 1:50 18.4 74 0.0 0 0.0 1.0 3.5 94
16/09/2020 2:00 18.4 75 0.0 0 0.0 1.1 4.1 104
16/09/2020 2:10 18.2 75 0.0 0 0.0 1.1 3.9 97
16/09/2020 2:20 18.1 75 0.0 0 0.0 1.2 4.4 93
16/09/2020 2:30 18.0 76 0.0 0 0.0 0.9 3.1 98
16/09/2020 2:40 17.9 75 0.0 0 0.0 1.0 3.7 84
16/09/2020 2:50 17.9 76 0.0 0 0.0 1.2 4.2 89
16/09/2020 3:00 17.8 76 0.0 0 0.0 1.5 5.5 84
16/09/2020 3:10 17.6 78 0.0 0 0.0 1.2 4.4 94
16/09/2020 3:20 17.6 77 0.0 0 0.0 1.2 4.4 91
16/09/2020 3:30 17.5 77 0.0 0 0.0 1.4 4.9 90
16/09/2020 3:40 17.3 78 0.0 0 0.0 1.3 4.8 88
16/09/2020 3:50 17.3 78 0.0 0 0.0 1.2 4.2 79
16/09/2020 4:00 17.1 79 0.0 0 0.0 0.9 3.3 84
16/09/2020 4:10 17.0 79 0.0 0 0.0 1.2 4.2 92
16/09/2020 4:20 17.0 79 0.0 0 0.0 1.1 3.9 95
16/09/2020 4:30 16.9 79 0.0 0 0.0 1.1 3.9 97
16/09/2020 4:40 16.8 79 0.0 0 0.0 1.2 4.2 94
16/09/2020 4:50 16.7 80 0.0 0 0.0 1.0 3.6 95
16/09/2020 5:00 16.7 80 0.0 0 0.0 1.1 4.1 97
16/09/2020 5:10 16.6 80 0.0 0 0.0 1.1 4.1 91
16/09/2020 5:20 16.5 80 0.0 0 0.0 1.3 4.7 88
16/09/2020 5:30 16.4 82 0.0 0 0.0 1.6 5.7 83
16/09/2020 5:40 16.2 82 0.0 0 0.0 1.9 6.8 78
16/09/2020 5:50 16.2 81 0.0 0 0.0 1.3 4.8 91
16/09/2020 6:00 16.1 81 1.3 0 0.0 1.3 4.8 103
16/09/2020 6:10 16.2 79 24.1 100 0.0 1.0 3.7 107
16/09/2020 6:20 16.4 78 42.9 600 0.0 1.5 5.2 94
16/09/2020 6:30 16.6 78 64.0 600 0.0 1.0 3.7 75
16/09/2020 6:40 16.7 78 86.1 600 0.0 1.3 4.5 67
16/09/2020 6:50 17.0 77 116.5 600 0.0 1.5 5.5 73
16/09/2020 7:00 17.1 76 148.4 600 0.0 1.6 5.7 77
16/09/2020 7:10 17.5 73 183.7 600 0.0 1.0 3.7 78
16/09/2020 7:20 18.0 71 225.4 600 0.0 1.5 5.4 77
16/09/2020 7:30 18.5 69 252.9 600 0.0 1.2 4.4 69
16/09/2020 7:40 19.0 68 283.9 600 0.0 1.4 5.0 73
16/09/2020 7:50 19.5 66 294.2 600 0.0 1.3 4.8 98
16/09/2020 8:00 19.8 65 327.1 600 0.0 1.0 3.7 55
16/09/2020 8:10 20.5 63 345.4 600 0.0 0.7 2.5 77
16/09/2020 8:20 20.9 61 376.0 600 0.0 0.7 2.6 65
16/09/2020 8:30 21.2 61 398.2 600 0.0 0.5 1.8 64
16/09/2020 8:40 21.7 59 403.2 600 0.0 0.5 1.9 53
16/09/2020 8:50 22.1 58 459.1 600 0.0 0.3 1.2 73
16/09/2020 9:00 22.6 57 487.8 600 0.0 0.2 0.8 20
16/09/2020 9:10 23.2 55 514.4 600 0.0 0.2 0.9 254
16/09/2020 9:20 23.4 53 525.8 600 0.0 0.2 0.5 34
16/09/2020 9:30 24.3 52 568.7 600 0.0 0.5 1.8 64
16/09/2020 9:40 24.8 49 589.9 600 0.0 0.7 2.7 54
16/09/2020 9:50 25.3 48 606.3 600 0.0 0.7 2.5 72
16/09/2020 10:00 25.5 48 626.8 600 0.0 0.5 1.7 45
16/09/2020 10:10 26.0 47 643.6 600 0.0 0.4 1.4 30
16/09/2020 10:20 26.7 44 660.3 600 0.0 0.4 1.3 270
16/09/2020 10:30 27.0 43 675.3 600 0.0 0.8 2.9 57
16/09/2020 10:40 27.3 43 692.9 600 0.0 0.7 2.5 55
16/09/2020 10:50 27.4 42 705.2 600 0.0 0.7 2.6 3
16/09/2020 11:00 28.0 41 718.4 600 0.0 0.5 1.9 284
16/09/2020 11:10 28.3 41 731.6 600 0.0 0.9 3.4 315
16/09/2020 11:20 28.5 40 741.6 600 0.0 1.1 4.1 272
16/09/2020 11:30 28.9 39 745.3 600 0.0 0.7 2.6 106
16/09/2020 11:40 29.1 39 748.9 600 0.0 1.0 3.7 289
16/09/2020 11:50 29.7 38 754.2 600 0.0 1.1 4.0 254
16/09/2020 12:00 29.6 37 755.9 600 0.0 0.6 2.3 171
16/09/2020 12:10 29.7 37 752.9 600 0.0 0.7 2.6 119
16/09/2020 12:20 29.9 36 749.2 600 0.0 0.9 3.1 255
16/09/2020 12:30 30.4 34 735.5 600 0.0 0.9 3.2 195
16/09/2020 12:40 30.5 34 719.1 600 0.0 0.9 3.4 249
16/09/2020 12:50 30.7 33 726.6 600 0.0 1.4 4.9 247
16/09/2020 13:00 30.4 33 710.4 600 0.0 1.4 5.1 134
16/09/2020 13:10 30.5 32 690.2 600 0.0 0.8 2.8 128
16/09/2020 13:20 30.7 32 690.1 600 0.0 0.9 3.2 203
16/09/2020 13:30 31.3 32 664.9 600 0.0 0.7 2.4 216
16/09/2020 13:40 31.4 32 633.9 600 0.0 0.8 2.7 325
16/09/2020 13:50 31.6 30 623.9 600 0.0 1.8 6.4 223
16/09/2020 14:00 31.4 31 608.0 592 0.0 1.6 5.8 228
16/09/2020 14:10 31.4 32 564.8 588 0.0 0.3 1.1 102
16/09/2020 14:20 31.3 32 548.9 582 0.0 0.9 3.3 334
16/09/2020 14:30 31.2 31 551.0 600 0.0 0.9 3.2 354
16/09/2020 14:40 31.6 30 521.6 600 0.0 0.8 2.7 275
16/09/2020 14:50 31.6 30 504.7 600 0.0 0.3 1.2 28
16/09/2020 15:00 31.8 29 505.8 600 0.0 1.4 5.1 281
16/09/2020 15:10 31.8 28 479.2 600 0.0 0.7 2.3 317
16/09/2020 15:20 31.8 29 282.7 234 0.0 1.6 5.7 307
16/09/2020 15:30 31.0 30 374.2 422 0.0 1.3 4.5 333
16/09/2020 15:40 31.3 29 460.1 600 0.0 0.8 3.0 324
16/09/2020 15:50 31.7 28 259.9 270 0.0 0.4 1.3 5
16/09/2020 16:00 30.6 31 190.8 0 0.0 2.2 7.7 6
16/09/2020 16:10 29.8 38 208.4 448 0.0 2.6 9.4 25
16/09/2020 16:20 29.7 38 236.1 600 0.0 4.4 15.8 44
16/09/2020 16:30 29.6 38 232.0 600 0.0 4.0 14.3 43
16/09/2020 16:40 29.4 38 197.5 600 0.0 4.8 17.3 39
16/09/2020 16:50 29.2 38 191.6 600 0.0 5.4 19.5 40
16/09/2020 17:00 29.2 38 155.3 600 0.0 5.1 18.5 39
16/09/2020 17:10 28.9 39 129.4 600 0.0 4.9 17.7 41
16/09/2020 17:20 28.8 39 99.2 594 0.0 4.9 17.6 39
16/09/2020 17:30 28.6 39 62.5 142 0.0 5.0 17.9 37
16/09/2020 17:40 28.5 39 37.1 0 0.0 5.3 18.9 36
16/09/2020 17:50 28.1 40 25.2 0 0.0 4.2 15.0 38
16/09/2020 18:00 27.9 40 6.9 0 0.0 4.3 15.4 39
16/09/2020 18:10 27.8 40 0.0 0 0.0 4.6 16.4 36
16/09/2020 18:20 27.7 40 0.0 0 0.0 4.3 15.6 39
16/09/2020 18:30 27.4 40 0.0 0 0.0 3.8 13.5 38
16/09/2020 18:40 27.2 41 0.0 0 0.0 3.5 12.7 40
16/09/2020 18:50 27.0 41 0.0 0 0.0 3.2 11.3 39
16/09/2020 19:00 26.8 41 0.0 0 0.0 3.7 13.1 39
16/09/2020 19:10 26.9 41 0.0 0 0.0 3.5 12.7 47
16/09/2020 19:20 26.6 42 0.0 0 0.0 1.8 6.3 43
16/09/2020 19:30 26.5 42 0.0 0 0.0 0.9 3.4 83
16/09/2020 19:40 26.3 42 0.0 0 0.0 1.0 3.6 134
16/09/2020 19:50 26.2 43 0.0 0 0.0 1.6 5.6 130
16/09/2020 20:00 26.0 43 0.0 0 0.0 2.3 8.1 85
16/09/2020 20:10 25.9 43 0.0 0 0.0 2.1 7.5 70
16/09/2020 20:20 25.6 44 0.0 0 0.0 2.2 7.7 53
16/09/2020 20:30 25.5 44 0.0 0 0.0 2.5 8.9 43
16/09/2020 20:40 25.3 44 0.0 0 0.0 2.2 7.8 32
16/09/2020 20:50 25.2 45 0.0 0 0.0 1.6 5.7 57
16/09/2020 21:00 25.0 45 0.0 0 0.0 1.1 4.0 46
16/09/2020 21:10 24.8 45 0.0 0 0.0 0.9 3.1 47
16/09/2020 21:20 24.7 46 0.0 0 0.0 0.8 2.9 90
16/09/2020 21:30 24.6 46 0.0 0 0.0 0.9 3.3 94
16/09/2020 21:40 24.4 47 0.0 0 0.0 1.4 4.9 85
16/09/2020 21:50 24.0 48 0.0 0 0.0 1.5 5.3 98
16/09/2020 22:00 23.7 49 0.0 0 0.0 1.2 4.2 106
16/09/2020 22:10 23.6 49 0.0 0 0.0 1.1 4.0 84
16/09/2020 22:20 23.4 50 0.0 0 0.0 1.0 3.4 94
16/09/2020 22:30 23.2 51 0.0 0 0.0 1.1 4.0 93
16/09/2020 22:40 22.9 52 0.0 0 0.0 1.3 4.8 107
16/09/2020 22:50 22.7 53 0.0 0 0.0 1.7 6.1 93
16/09/2020 23:00 22.4 54 0.0 0 0.0 1.8 6.4 78
16/09/2020 23:10 22.0 54 0.0 0 0.0 1.3 4.8 69
16/09/2020 23:20 21.8 55 0.0 0 0.0 1.4 4.9 93
16/09/2020 23:30 21.7 55 0.0 0 0.0 0.8 2.7 106
16/09/2020 23:40 21.5 56 0.0 0 0.0 1.2 4.1 105
16/09/2020 23:50 21.5 56 0.0 0 0.0 1.7 6.1 116
Anterior Página 1 de 1 Siguiente

NOTA: Tipo de datos según el color:
   - Valores diarios o 10 minutos correctos
   - Valores diarios calculados a partir de un número de datos 10 minutos menor que 144 y mayor que 120, o de un número de datos semihorarios menor que 48 y mayor que 40 (caso de las estaciones de INTIA y del Ministerio)
   - Valores diez minutos estimados


Contacto        Enlaces        Aviso legal